Time;durP1;ratioP1;P1;durP2;ratioP2;P2;SDS_P1;SDS_P2;PMS_P1;PMS_P2;Temp;Humidity;BMP_temperature;BMP_pressure;BME280_temperature;BME280_humidity;BME280_pressure;Samples;Min_cycle;Max_cycle;Signal;HPM_P1;HPM_P2
2021/03/08 00:01:47;;;;;;;;;;;;;;;;;;;;;
2021/03/08 00:04:15;;;;;;;;;;;4.40;76.10;;;;;;6213556;23;19927;-85
2021/03/08 00:06:41;;;;;;;;;;;4.40;76.20;;;;;;6189422;23;19954;-85
2021/03/08 00:09:16;;;;;;;;;;;4.40;76.30;;;;;;6212054;23;19900;-84
2021/03/08 00:11:45;;;;;;;;;;;4.40;76.30;;;;;;6214220;23;19899;-85
2021/03/08 00:14:11;;;;;;;;;;;4.40;76.30;;;;;;6215967;23;20306;-84
2021/03/08 00:17:01;;;;;;;;;;;4.40;76.40;;;;;;6189799;23;19985;-84
2021/03/08 00:19:27;;;;;;;;;;;4.40;76.50;;;;;;6215343;23;19931;-84
2021/03/08 00:21:55;;;;;;;;;;;4.40;76.50;;;;;;6190429;23;19900;-84
2021/03/08 00:24:29;;;;;;;;;;;4.40;76.70;;;;;;6215306;23;19931;-84
2021/03/08 00:26:54;;;;;;;;;;;4.40;76.70;;;;;;6214487;23;19934;-84
2021/03/08 00:29:26;;;;;;;;;;;4.40;76.80;;;;;;6215689;23;19900;-84
2021/03/08 00:32:05;;;;;;;;;;;;;;;;;;;;;
2021/03/08 00:34:51;;;;;;;;;;;4.40;76.90;;;;;;6216730;23;19987;-84
2021/03/08 00:37:20;;;;;;;;;;;4.40;76.90;;;;;;6190799;23;19900;-84
2021/03/08 00:39:54;;;;;;;;;;;4.40;76.90;;;;;;6215824;23;19900;-84
2021/03/08 00:42:19;;;;;;;;;;;4.40;77.00;;;;;;6189718;23;19907;-84
2021/03/08 00:44:55;;;;;;;;;;;;;;;;;;;;;
2021/03/08 00:47:52;;;;;;;;;;;4.40;77.10;;;;;;6216000;23;19983;-84
2021/03/08 00:50:21;;;;;;;;;;;4.40;77.30;;;;;;6177241;23;19911;-84
2021/03/08 00:52:49;;;;;;;;;;;4.40;77.40;;;;;;6215962;23;19900;-84
2021/03/08 00:55:17;;;;;;;;;;;4.40;77.30;;;;;;6214614;23;19900;-84
2021/03/08 00:57:43;;;;;;;;;;;4.40;77.40;;;;;;6215582;23;19900;-84
2021/03/08 01:00:18;;;;;;;;;;;4.40;77.50;;;;;;6215311;23;20318;-86
2021/03/08 01:02:51;;;;;;;;;;;4.40;77.50;;;;;;6215114;23;19903;-84
2021/03/08 01:05:17;;;;;;;;;;;4.40;77.50;;;;;;6215253;23;19969;-84
2021/03/08 01:07:45;;;;;;;;;;;4.40;77.70;;;;;;6215008;23;19903;-83
2021/03/08 01:10:13;;;;;;;;;;;4.40;77.60;;;;;;6215266;23;19899;-84
2021/03/08 01:12:46;;;;;;;;;;;4.40;77.60;;;;;;6215108;23;20356;-84
2021/03/08 01:15:17;;;;;;;;;;;4.40;77.70;;;;;;6215283;23;19939;-84
2021/03/08 01:17:52;;;;;;;;;;;4.40;77.70;;;;;;6215435;23;19982;-84
2021/03/08 01:20:19;;;;;;;;;;;4.40;77.70;;;;;;6214202;23;19907;-84
2021/03/08 01:22:47;;;;;;;;;;;4.40;77.70;;;;;;6215124;23;19904;-84
2021/03/08 01:25:16;;;;;;;;;;;4.40;77.80;;;;;;6214133;23;19912;-84
2021/03/08 01:27:47;;;;;;;;;;;4.40;77.80;;;;;;6215606;23;19900;-83
2021/03/08 01:30:17;;;;;;;;;;;4.40;77.90;;;;;;6213637;23;19899;-84
2021/03/08 01:32:50;;;;;;;;;;;4.40;77.90;;;;;;6215400;23;19918;-84
2021/03/08 01:35:16;;;;;;;;;;;4.40;77.80;;;;;;6215220;23;19927;-83
2021/03/08 01:37:45;;;;;;;;;;;4.30;77.80;;;;;;6213602;23;19900;-84
2021/03/08 01:40:11;;;;;;;;;;;4.30;77.90;;;;;;6215440;23;19926;-83
2021/03/08 01:43:03;;;;;;;;;;;4.40;78.10;;;;;;6213737;23;19900;-84
2021/03/08 01:45:31;;;;;;;;;;;4.40;78.20;;;;;;6188409;23;19979;-84
2021/03/08 01:48:10;;;;;;;;;;;;;;;;;;;;;
2021/03/08 01:50:41;;;;;;;;;;;4.40;78.40;;;;;;6215910;23;19987;-84
2021/03/08 01:53:17;;;;;;;;;;;4.40;78.40;;;;;;6184489;23;19911;-84
2021/03/08 01:55:43;;;;;;;;;;;4.40;78.50;;;;;;6213200;23;19900;-84
2021/03/08 01:58:12;;;;;;;;;;;4.40;78.70;;;;;;6213542;23;20203;-84
2021/03/08 02:00:41;;;;;;;;;;;4.30;78.60;;;;;;6213234;23;19900;-84
2021/03/08 02:03:07;;;;;;;;;;;4.40;78.80;;;;;;6215042;23;19900;-84
2021/03/08 02:05:38;;;;;;;;;;;4.30;78.70;;;;;;6213835;23;20276;-83
2021/03/08 02:08:07;;;;;;;;;;;4.30;78.70;;;;;;6189204;23;19910;-84
2021/03/08 02:10:36;;;;;;;;;;;4.30;78.70;;;;;;6188449;23;19904;-83
2021/03/08 02:13:02;;;;;;;;;;;4.30;78.80;;;;;;6215255;23;20318;-84
2021/03/08 02:15:38;;;;;;;;;;;4.30;78.90;;;;;;6186979;23;19911;-84
2021/03/08 02:18:08;;;;;;;;;;;4.30;79.00;;;;;;6214430;23;19977;-83
2021/03/08 02:20:48;;;;;;;;;;;4.30;79.00;;;;;;6214578;23;19981;-84
2021/03/08 02:23:23;;;;;;;;;;;4.30;79.00;;;;;;6188367;23;20307;-83
2021/03/08 02:26:09;;;;;;;;;;;4.30;79.10;;;;;;6188704;23;19998;-84
2021/03/08 02:28:36;;;;;;;;;;;4.30;79.10;;;;;;6189509;23;19907;-84
2021/03/08 02:31:04;;;;;;;;;;;4.30;79.10;;;;;;6188466;23;19987;-85
2021/03/08 02:33:35;;;;;;;;;;;4.20;79.20;;;;;;6183174;23;20238;-84
2021/03/08 02:36:06;;;;;;;;;;;4.30;79.30;;;;;;6158664;23;19904;-84
2021/03/08 02:38:43;;;;;;;;;;;4.20;79.30;;;;;;6158428;23;19931;-83
2021/03/08 02:41:17;;;;;;;;;;;4.20;79.30;;;;;;6159019;23;19979;-84
2021/03/08 02:43:43;;;;;;;;;;;4.20;79.40;;;;;;6157969;23;20703;-84
2021/03/08 02:46:25;;;;;;;;;;;4.20;79.40;;;;;;6159101;23;19904;-84
2021/03/08 02:48:51;;;;;;;;;;;4.10;79.30;;;;;;6159459;23;19900;-84
2021/03/08 02:51:23;;;;;;;;;;;4.10;79.40;;;;;;6157847;23;20223;-84
2021/03/08 02:53:56;;;;;;;;;;;4.10;79.50;;;;;;6158566;23;19979;-84
2021/03/08 02:56:23;;;;;;;;;;;4.10;79.60;;;;;;6158785;23;19963;-84
2021/03/08 02:58:53;;;;;;;;;;;4.10;79.60;;;;;;6158541;23;19900;-84
2021/03/08 03:01:29;;;;;;;;;;;4.10;79.70;;;;;;6158451;23;20443;-84
2021/03/08 03:03:55;;;;;;;;;;;4.10;79.70;;;;;;6159295;23;19915;-83
2021/03/08 03:06:33;;;;;;;;;;;4.10;79.80;;;;;;6183535;23;19907;-84
2021/03/08 03:09:01;;;;;;;;;;;4.10;79.80;;;;;;6158303;23;19900;-84
2021/03/08 03:11:29;;;;;;;;;;;4.10;79.80;;;;;;6158253;23;19907;-85
2021/03/08 03:13:58;;;;;;;;;;;4.10;79.90;;;;;;6184848;23;19907;-84
2021/03/08 03:16:27;;;;;;;;;;;4.10;79.90;;;;;;6157843;23;19951;-84
2021/03/08 03:18:56;;;;;;;;;;;4.10;80.00;;;;;;6182651;23;20527;-84
2021/03/08 03:21:24;;;;;;;;;;;4.10;80.00;;;;;;6133528;23;19959;-84
2021/03/08 03:23:51;;;;;;;;;;;4.10;80.10;;;;;;6155970;23;19983;-84
2021/03/08 03:26:17;;;;;;;;;;;4.10;80.20;;;;;;6157328;23;19900;-84
2021/03/08 03:28:58;;;;;;;;;;;4.10;80.30;;;;;;6183007;23;19907;-83
2021/03/08 03:31:32;;;;;;;;;;;4.10;80.30;;;;;;6159020;23;19908;-84
2021/03/08 03:33:58;;;;;;;;;;;4.10;80.30;;;;;;6187930;23;20278;-84
2021/03/08 03:36:25;;;;;;;;;;;4.10;80.30;;;;;;6188643;23;19923;-83
2021/03/08 03:38:52;;;;;;;;;;;4.10;80.40;;;;;;6188715;23;19954;-83
2021/03/08 03:41:20;;;;;;;;;;;4.10;80.40;;;;;;6188284;23;19995;-83
2021/03/08 03:43:54;;;;;;;;;;;4.10;80.50;;;;;;6188418;23;19995;-84
2021/03/08 03:46:27;;;;;;;;;;;4.10;81.10;;;;;;6215199;23;19927;-83
2021/03/08 03:48:55;;;;;;;;;;;4.00;80.50;;;;;;6187980;23;20247;-83
2021/03/08 03:51:31;;;;;;;;;;;4.00;80.60;;;;;;6214414;23;19900;-84
2021/03/08 03:53:57;;;;;;;;;;;4.10;80.60;;;;;;6215944;23;19903;-84
2021/03/08 03:56:25;;;;;;;;;;;4.10;80.60;;;;;;6192089;23;19900;-84
2021/03/08 03:59:00;;;;;;;;;;;4.10;80.70;;;;;;6216634;23;19900;-84
2021/03/08 04:01:35;;;;;;;;;;;4.10;80.70;;;;;;6191065;23;20202;-85
2021/03/08 04:04:12;;;;;;;;;;;4.00;80.70;;;;;;6215779;23;19908;-84
2021/03/08 04:06:45;;;;;;;;;;;4.10;80.90;;;;;;6189105;23;19907;-84
2021/03/08 04:09:13;;;;;;;;;;;4.10;80.90;;;;;;6189761;23;19900;-84
2021/03/08 04:11:40;;;;;;;;;;;4.00;80.90;;;;;;6212351;23;19904;-84
2021/03/08 04:14:09;;;;;;;;;;;4.00;80.90;;;;;;6189548;23;20633;-84
2021/03/08 04:16:39;;;;;;;;;;;4.00;80.90;;;;;;6187753;23;19899;-85
2021/03/08 04:19:07;;;;;;;;;;;4.00;81.00;;;;;;6189099;23;19927;-84
2021/03/08 04:21:50;;;;;;;;;;;4.00;81.00;;;;;;6187506;23;19907;-84
2021/03/08 04:24:27;;;;;;;;;;;;;;;;;;;;;
2021/03/08 04:26:58;;;;;;;;;;;4.00;81.20;;;;;;6213554;23;19982;-84
2021/03/08 04:29:26;;;;;;;;;;;3.90;81.20;;;;;;6189021;23;19923;-84
2021/03/08 04:31:52;;;;;;;;;;;4.00;81.30;;;;;;6212174;23;20367;-84
2021/03/08 04:34:19;;;;;;;;;;;3.90;81.30;;;;;;6213405;23;19974;-85
2021/03/08 04:36:52;;;;;;;;;;;3.90;81.40;;;;;;6212177;23;19962;-84
2021/03/08 04:39:23;;;;;;;;;;;4.00;81.50;;;;;;6212897;23;19946;-82
2021/03/08 04:42:07;;;;;;;;;;;4.00;81.50;;;;;;6212796;23;20265;-84
2021/03/08 04:44:40;;;;;;;;;;;3.90;81.50;;;;;;6215764;23;19908;-84
2021/03/08 04:47:09;;;;;;;;;;;3.90;81.60;;;;;;6212784;23;20320;-84
2021/03/08 04:49:40;;;;;;;;;;;4.00;81.70;;;;;;6213622;23;19927;-84
2021/03/08 04:52:07;;;;;;;;;;;4.00;81.80;;;;;;6187111;23;19900;-84
2021/03/08 04:54:33;;;;;;;;;;;4.00;81.80;;;;;;6213416;23;20226;-84
2021/03/08 04:57:02;;;;;;;;;;;4.00;81.80;;;;;;6213612;23;20199;-84
2021/03/08 04:59:30;;;;;;;;;;;4.00;81.90;;;;;;6213190;23;19899;-83
2021/03/08 05:01:59;;;;;;;;;;;4.00;81.90;;;;;;6214960;23;19900;-84
2021/03/08 05:04:27;;;;;;;;;;;3.90;81.90;;;;;;6214261;23;19943;-84
2021/03/08 05:06:56;;;;;;;;;;;4.00;82.00;;;;;;6214834;23;20310;-85
2021/03/08 05:09:52;;;;;;;;;;;;;;;;;;;;;
2021/03/08 05:13:24;;;;;;;;;;;;;;;;;;;;;
2021/03/08 05:15:50;;;;;;;;;;;;;;;;;;;;;
2021/03/08 05:28:43;;;;;;;;;;;;;;;;;;;;;
2021/03/08 05:32:00;;;;;;;;;;;;;;;;;;;;;
2021/03/08 05:38:03;;;;;;;;;;;;;;;;;;;;;
2021/03/08 05:41:03;;;;;;;;;;;;;;;;;;;;;
2021/03/08 05:44:20;;;;;;;;;;;;;;;;;;;;;
2021/03/08 05:47:30;;;;;;;;;;;4.10;82.40;;;;;;6060616;23;19935;-88
2021/03/08 05:50:07;;;;;;;;;;;4.10;82.50;;;;;;6055204;23;19900;-88
2021/03/08 05:56:12;;;;;;;;;;;4.10;82.50;;;;;;6186926;23;19900;-88
2021/03/08 05:59:03;;;;;;;;;;;4.10;82.50;;;;;;6186116;23;19967;-89
2021/03/08 06:01:46;;;;;;;;;;;4.10;82.60;;;;;;6175438;23;19992;-88
2021/03/08 06:04:39;;;;;;;;;;;4.10;82.60;;;;;;6162064;23;19915;-90
2021/03/08 06:07:42;;;;;;;;;;;4.10;82.60;;;;;;6187871;23;19900;-89
2021/03/08 06:13:38;;;;;;;;;;;;;;;;;;;;;
2021/03/08 06:16:36;;;;;;;;;;;;;;;;;;;;;
2021/03/08 06:22:04;;;;;;;;;;;4.10;82.60;;;;;;6160082;23;19900;-89
2021/03/08 06:24:45;;;;;;;;;;;;;;;;;;;;;
2021/03/08 06:27:31;;;;;;;;;;;4.10;82.70;;;;;;6176889;23;19999;-89
2021/03/08 06:30:17;;;;;;;;;;;4.20;82.80;;;;;;6163998;23;19915;-89
2021/03/08 06:36:30;;;;;;;;;;;;;;;;;;;;;
2021/03/08 06:39:25;;;;;;;;;;;4.20;82.80;;;;;;6197535;23;20381;-90
2021/03/08 06:42:13;;;;;;;;;;;4.20;82.80;;;;;;6188618;23;19923;-90
2021/03/08 06:45:09;;;;;;;;;;;;;;;;;;;;;
2021/03/08 06:51:04;;;;;;;;;;;4.20;82.90;;;;;;6197530;23;19900;-88
2021/03/08 06:53:30;;;;;;;;;;;4.20;83.00;;;;;;6189308;23;19904;-89
2021/03/08 06:59:32;;;;;;;;;;;4.20;83.50;;;;;;6203035;23;19986;-89
2021/03/08 07:02:18;;;;;;;;;;;4.30;82.90;;;;;;6210339;23;19900;-89
2021/03/08 07:05:23;;;;;;;;;;;;;;;;;;;;;
2021/03/08 07:08:07;;;;;;;;;;;4.30;83.00;;;;;;6224319;23;19935;-89
2021/03/08 07:13:43;;;;;;;;;;;4.30;82.90;;;;;;6225340;23;19899;-90
2021/03/08 07:16:25;;;;;;;;;;;;;;;;;;;;;
2021/03/08 07:19:21;;;;;;;;;;;4.40;82.90;;;;;;6234235;23;19900;-90
2021/03/08 07:22:16;;;;;;;;;;;4.40;82.90;;;;;;6201741;23;19967;-88
2021/03/08 07:28:22;;;;;;;;;;;4.40;83.00;;;;;;6240131;23;19899;-87
2021/03/08 07:34:42;;;;;;;;;;;;;;;;;;;;;
2021/03/08 07:37:48;;;;;;;;;;;;;;;;;;;;;
2021/03/08 07:40:54;;;;;;;;;;;;;;;;;;;;;
2021/03/08 07:43:32;;;;;;;;;;;4.60;82.80;;;;;;6190867;23;19928;-90
2021/03/08 07:48:54;;;;;;;;;;;4.60;82.70;;;;;;6168011;23;19939;-87
2021/03/08 07:51:52;;;;;;;;;;;;;;;;;;;;;
2021/03/08 07:57:49;;;;;;;;;;;;;;;;;;;;;
2021/03/08 08:00:29;;;;;;;;;;;4.80;82.60;;;;;;6150621;23;20354;-89
2021/03/08 08:03:21;;;;;;;;;;;4.80;82.50;;;;;;6161715;23;19900;-89
2021/03/08 08:06:07;;;;;;;;;;;4.90;82.50;;;;;;6186100;23;19914;-90
2021/03/08 08:09:05;;;;;;;;;;;4.90;82.50;;;;;;6186676;23;19900;-89
2021/03/08 08:11:54;;;;;;;;;;;;;;;;;;;;;
2021/03/08 08:17:41;;;;;;;;;;;4.90;82.20;;;;;;6188703;23;19900;-89
2021/03/08 08:20:43;;;;;;;;;;;;;;;;;;;;;
2021/03/08 08:23:27;;;;;;;;;;;5.00;82.00;;;;;;6097896;23;20507;-89
2021/03/08 08:26:00;;;;;;;;;;;5.10;82.10;;;;;;6097344;23;19915;-90
2021/03/08 08:28:33;;;;;;;;;;;5.10;82.10;;;;;;6095222;23;19901;-89
2021/03/08 08:37:46;;;;;;;;;;;5.20;81.90;;;;;;6182056;23;19912;-89
2021/03/08 08:40:39;;;;;;;;;;;;;;;;;;;;;
2021/03/08 08:46:52;;;;;;;;;;;;;;;;;;;;;
2021/03/08 08:53:08;;;;;;;;;;;;;;;;;;;;;
2021/03/08 08:56:03;;;;;;;;;;;5.40;81.60;;;;;;6131651;23;19971;-89
2021/03/08 08:58:43;;;;;;;;;;;5.50;81.60;;;;;;6184878;23;19926;-89
2021/03/08 09:02:04;;;;;;;;;;;;;;;;;;;;;
2021/03/08 09:04:28;;;;;;;;;;;5.60;81.50;;;;;;6180890;23;19947;-90
2021/03/08 09:07:02;;;;;;;;;;;5.60;81.40;;;;;;6187421;23;19928;-89
2021/03/08 09:10:04;;;;;;;;;;;;;;;;;;;;;
2021/03/08 09:13:09;;;;;;;;;;;;;;;;;;;;;
2021/03/08 09:15:36;;;;;;;;;;;;;;;;;;;;;
2021/03/08 09:22:14;;;;;;;;;;;;;;;;;;;;;
2021/03/08 09:27:46;;;;;;;;;;;;;;;;;;;;;
2021/03/08 09:50:19;;;;;;;;;;;;;;;;;;;;;
2021/03/08 09:58:38;;;;;;;;;;;6.30;80.20;;;;;;6062891;23;20319;-91
2021/03/08 10:01:38;;;;;;;;;;;6.40;80.00;;;;;;6097010;23;19957;-91
2021/03/08 10:04:32;;;;;;;;;;;6.40;79.90;;;;;;6084911;23;19933;-92
2021/03/08 10:13:38;;;;;;;;;;;6.60;79.40;;;;;;6218309;23;19922;-90
2021/03/08 10:19:43;;;;;;;;;;;;;;;;;;;;;
2021/03/08 10:25:54;;;;;;;;;;;;;;;;;;;;;
2021/03/08 10:28:44;;;;;;;;;;;6.80;78.30;;;;;;6212293;23;20492;-92
2021/03/08 10:31:43;;;;;;;;;;;6.90;78.20;;;;;;6216791;23;20286;-92
2021/03/08 10:40:46;;;;;;;;;;;;;;;;;;;;;
2021/03/08 10:44:24;;;;;;;;;;;;;;;;;;;;;
2021/03/08 10:46:49;;;;;;;;;;;;;;;;;;;;;
2021/03/08 10:49:29;;;;;;;;;;;7.30;78.30;;;;;;6218227;23;19975;-90
2021/03/08 10:52:27;;;;;;;;;;;7.30;78.30;;;;;;6215727;23;19900;-92
2021/03/08 10:55:14;;;;;;;;;;;7.40;78.10;;;;;;6140835;23;20306;-91
2021/03/08 10:58:17;;;;;;;;;;;7.40;77.70;;;;;;6175865;23;20576;-92
2021/03/08 11:19:52;;;;;;;;;;;;;;;;;;;;;
2021/03/08 11:22:44;;;;;;;;;;;7.70;77.10;;;;;;6109615;23;19979;-91
2021/03/08 11:29:03;;;;;;;;;;;;;;;;;;;;;
2021/03/08 11:34:36;;;;;;;;;;;7.90;76.80;;;;;;6057999;23;19961;-91
2021/03/08 11:43:33;;;;;;;;;;;8.10;76.50;;;;;;6213354;23;20372;-91
2021/03/08 11:46:19;;;;;;;;;;;8.20;76.40;;;;;;6190932;23;19961;-91
2021/03/08 11:49:17;;;;;;;;;;;;;;;;;;;;;
2021/03/08 11:52:03;;;;;;;;;;;8.30;76.10;;;;;;6216685;23;19983;-91
2021/03/08 11:55:22;;;;;;;;;;;8.30;76.00;;;;;;6215735;23;19982;-91
2021/03/08 11:57:59;;;;;;;;;;;8.30;75.90;;;;;;6072426;23;19897;-91
2021/03/08 12:03:42;;;;;;;;;;;8.40;75.80;;;;;;6180285;23;19903;-90
2021/03/08 12:06:50;;;;;;;;;;;;;;;;;;;;;
2021/03/08 12:09:52;;;;;;;;;;;;;;;;;;;;;
2021/03/08 12:21:21;;;;;;;;;;;;;;;;;;;;;
2021/03/08 12:30:26;;;;;;;;;;;8.60;74.80;;;;;;6186000;23;19904;-93
2021/03/08 12:36:26;;;;;;;;;;;8.70;74.70;;;;;;6197420;23;20560;-91
2021/03/08 12:39:04;;;;;;;;;;;;;;;;;;;;;
2021/03/08 12:48:13;;;;;;;;;;;;;;;;;;;;;
2021/03/08 12:50:50;;;;;;;;;;;8.70;74.10;;;;;;6191700;23;19904;-92
2021/03/08 13:00:05;;;;;;;;;;;;;;;;;;;;;
2021/03/08 13:02:50;;;;;;;;;;;;;;;;;;;;;
2021/03/08 13:05:46;;;;;;;;;;;8.70;73.90;;;;;;6195817;23;20304;-92
2021/03/08 13:11:52;;;;;;;;;;;8.80;73.90;;;;;;6203088;23;19900;-92
2021/03/08 13:17:12;;;;;;;;;;;;;;;;;;;;;
2021/03/08 13:19:51;;;;;;;;;;;8.70;73.60;;;;;;6246587;22;19990;-92
2021/03/08 13:28:36;;;;;;;;;;;8.90;73.50;;;;;;6244627;22;20275;-92
2021/03/08 13:31:35;;;;;;;;;;;;;;;;;;;;;
2021/03/08 13:37:08;;;;;;;;;;;8.90;72.80;;;;;;6244507;22;19921;-91
2021/03/08 13:42:55;;;;;;;;;;;;;;;;;;;;;
2021/03/08 13:48:46;;;;;;;;;;;;;;;;;;;;;
2021/03/08 13:51:12;;;;;;;;;;;9.00;72.10;;;;;;6249557;23;19981;-90
2021/03/08 14:02:42;;;;;;;;;;;;;;;;;;;;;
2021/03/08 14:05:44;;;;;;;;;;;9.00;71.70;;;;;;6213720;23;19991;-91
2021/03/08 14:11:38;;;;;;;;;;;;;;;;;;;;;
2021/03/08 14:14:40;;;;;;;;;;;;;;;;;;;;;
2021/03/08 14:17:06;;;;;;;;;;;9.00;71.40;;;;;;6215913;23;19947;-91
2021/03/08 14:20:05;;;;;;;;;;;;;;;;;;;;;
2021/03/08 14:31:32;;;;;;;;;;;9.00;70.30;;;;;;6136575;23;19908;-90
2021/03/08 14:37:32;;;;;;;;;;;;;;;;;;;;;
2021/03/08 14:40:31;;;;;;;;;;;;;;;;;;;;;
2021/03/08 14:43:29;;;;;;;;;;;;;;;;;;;;;
2021/03/08 14:46:28;;;;;;;;;;;;;;;;;;;;;
2021/03/08 14:49:10;;;;;;;;;;;;;;;;;;;;;
2021/03/08 14:51:56;;;;;;;;;;;9.20;69.60;;;;;;6246799;23;20002;-92
2021/03/08 14:58:10;;;;;;;;;;;9.20;69.40;;;;;;6236724;22;19899;-91
2021/03/08 15:03:47;;;;;;;;;;;;;;;;;;;;;
2021/03/08 15:09:12;;;;;;;;;;;9.40;69.20;;;;;;6245242;22;19903;-92
2021/03/08 15:12:27;;;;;;;;;;;9.50;68.60;;;;;;6246000;22;19907;-91
2021/03/08 15:21:48;;;;;;;;;;;9.50;67.30;;;;;;6231490;22;19903;-89
2021/03/08 15:25:00;;;;;;;;;;;;;;;;;;;;;
2021/03/08 15:27:44;;;;;;;;;;;9.50;66.80;;;;;;6246610;22;19977;-89
2021/03/08 15:30:23;;;;;;;;;;;9.50;66.70;;;;;;6246078;22;19908;-90
2021/03/08 15:32:54;;;;;;;;;;;9.40;66.60;;;;;;6269343;22;19907;-89
2021/03/08 15:38:20;;;;;;;;;;;9.30;66.60;;;;;;6244783;22;19899;-87
2021/03/08 15:43:45;;;;;;;;;;;9.30;66.50;;;;;;6241547;22;19970;-90
2021/03/08 15:46:31;;;;;;;;;;;;;;;;;;;;;
2021/03/08 15:52:51;;;;;;;;;;;;;;;;;;;;;
2021/03/08 16:14:10;;;;;;;;;;;8.80;67.00;;;;;;6149097;23;19904;-89
2021/03/08 16:20:28;;;;;;;;;;;8.70;67.20;;;;;;6058615;23;19924;-90
2021/03/08 16:29:27;;;;;;;;;;;;;;;;;;;;;
2021/03/08 16:32:05;;;;;;;;;;;;;;;;;;;;;
2021/03/08 16:35:02;;;;;;;;;;;;;;;;;;;;;
2021/03/08 16:38:06;;;;;;;;;;;;;;;;;;;;;
2021/03/08 16:43:43;;;;;;;;;;;8.60;68.10;;;;;;5971529;24;19914;-89
2021/03/08 16:52:56;;;;;;;;;;;8.50;68.40;;;;;;5988996;23;19941;-89
2021/03/08 17:05:24;;;;;;;;;;;;;;;;;;;;;
2021/03/08 17:12:02;;;;;;;;;;;8.40;68.70;;;;;;6167407;23;19954;-90
2021/03/08 17:14:24;;;;;;;;;;;;;;;;;;;;;
2021/03/08 17:20:16;;;;;;;;;;;;;;;;;;;;;
2021/03/08 17:29:10;;;;;;;;;;;;;;;;;;;;;
2021/03/08 17:32:27;;;;;;;;;;;;;;;;;;;;;
2021/03/08 17:35:18;;;;;;;;;;;;;;;;;;;;;
2021/03/08 17:38:30;;;;;;;;;;;;;;;;;;;;;
2021/03/08 17:41:39;;;;;;;;;;;;;;;;;;;;;
2021/03/08 17:44:36;;;;;;;;;;;;;;;;;;;;;
2021/03/08 17:51:01;;;;;;;;;;;8.00;70.60;;;;;;6144313;23;19923;-91
2021/03/08 17:53:49;;;;;;;;;;;;;;;;;;;;;
2021/03/08 17:56:39;;;;;;;;;;;;;;;;;;;;;
2021/03/08 18:02:46;;;;;;;;;;;7.90;71.20;;;;;;6191580;23;19931;-91
2021/03/08 18:14:41;;;;;;;;;;;7.80;71.90;;;;;;6247593;23;19931;-91
2021/03/08 18:24:23;;;;;;;;;;;7.80;72.10;;;;;;6155551;23;19955;-91
2021/03/08 18:26:52;;;;;;;;;;;7.70;72.20;;;;;;6102478;23;19913;-84
2021/03/08 18:29:25;;;;;;;;;;;7.70;72.20;;;;;;6151507;23;19900;-84
2021/03/08 18:31:50;;;;;;;;;;;7.70;72.30;;;;;;6203765;23;19934;-84
2021/03/08 18:34:18;;;;;;;;;;;7.70;72.20;;;;;;6242951;23;19904;-85
2021/03/08 18:36:44;;;;;;;;;;;7.70;72.20;;;;;;6242712;23;19910;-85
2021/03/08 18:39:12;;;;;;;;;;;7.70;72.20;;;;;;6244286;23;19923;-86
2021/03/08 18:41:40;;;;;;;;;;;7.70;72.20;;;;;;6243332;23;19950;-85
2021/03/08 18:44:06;;;;;;;;;;;7.70;72.10;;;;;;6244021;23;19907;-84
2021/03/08 18:46:42;;;;;;;;;;;;;;;;;;;;;
2021/03/08 18:49:09;;;;;;;;;;;7.60;71.80;;;;;;6244134;23;19943;-86
2021/03/08 18:51:35;;;;;;;;;;;7.60;71.80;;;;;;6241741;23;19978;-85
2021/03/08 18:54:05;;;;;;;;;;;7.60;71.80;;;;;;6243511;23;20317;-84
2021/03/08 18:56:36;;;;;;;;;;;7.60;71.80;;;;;;6241929;23;19909;-85
2021/03/08 18:59:10;;;;;;;;;;;7.60;71.80;;;;;;6242834;23;19911;-84
2021/03/08 19:01:41;;;;;;;;;;;7.60;71.90;;;;;;6217559;23;20419;-86
2021/03/08 19:04:11;;;;;;;;;;;7.60;72.00;;;;;;6242573;23;19911;-85
2021/03/08 19:06:49;;;;;;;;;;;7.60;72.10;;;;;;6242393;23;20222;-85
2021/03/08 19:09:25;;;;;;;;;;;7.50;72.10;;;;;;6216991;23;19903;-85
2021/03/08 19:11:53;;;;;;;;;;;7.50;72.20;;;;;;6241350;23;19939;-85
2021/03/08 19:14:21;;;;;;;;;;;7.50;72.30;;;;;;6241352;23;19899;-85
2021/03/08 19:16:50;;;;;;;;;;;7.40;72.30;;;;;;6215687;23;19903;-86
2021/03/08 19:19:20;;;;;;;;;;;7.40;72.40;;;;;;6212915;22;20225;-85
2021/03/08 19:21:48;;;;;;;;;;;7.40;72.40;;;;;;6214363;23;20234;-85
2021/03/08 19:24:19;;;;;;;;;;;7.40;72.50;;;;;;6216935;23;19957;-84
2021/03/08 19:26:52;;;;;;;;;;;7.40;72.40;;;;;;6215844;23;19912;-85
2021/03/08 19:29:20;;;;;;;;;;;7.30;72.40;;;;;;6240990;23;19899;-83
2021/03/08 19:31:46;;;;;;;;;;;7.40;72.40;;;;;;6242939;23;20329;-84
2021/03/08 19:34:22;;;;;;;;;;;7.30;72.30;;;;;;6241755;23;19951;-85
2021/03/08 19:36:48;;;;;;;;;;;7.30;72.40;;;;;;6215074;23;19903;-84
2021/03/08 19:39:33;;;;;;;;;;;7.30;72.40;;;;;;6213307;23;19957;-86
2021/03/08 19:42:04;;;;;;;;;;;7.30;72.40;;;;;;6239129;23;20312;-85
2021/03/08 19:44:32;;;;;;;;;;;7.20;72.40;;;;;;6241993;23;20198;-83
2021/03/08 19:47:06;;;;;;;;;;;7.20;72.40;;;;;;6216585;23;19907;-84
2021/03/08 19:49:42;;;;;;;;;;;7.20;72.50;;;;;;6238886;23;19899;-84
2021/03/08 19:52:21;;;;;;;;;;;7.20;72.60;;;;;;6217863;23;19907;-85
2021/03/08 19:54:49;;;;;;;;;;;7.20;72.70;;;;;;6238943;23;20322;-85
2021/03/08 19:57:37;;;;;;;;;;;7.10;72.70;;;;;;6241498;23;20371;-86
2021/03/08 20:00:09;;;;;;;;;;;7.10;72.50;;;;;;6243496;23;19926;-84
2021/03/08 20:02:45;;;;;;;;;;;;;;;;;;;;;
2021/03/08 20:05:14;;;;;;;;;;;7.10;72.50;;;;;;6240565;23;19907;-85
2021/03/08 20:07:45;;;;;;;;;;;7.00;72.30;;;;;;6241246;23;19904;-85
2021/03/08 20:10:19;;;;;;;;;;;7.00;72.20;;;;;;6241552;23;19951;-86
2021/03/08 20:13:01;;;;;;;;;;;7.00;72.20;;;;;;6241098;23;20355;-86
2021/03/08 20:15:46;;;;;;;;;;;;;;;;;;;;;
2021/03/08 20:18:43;;;;;;;;;;;7.00;72.10;;;;;;6242172;23;19990;-85
2021/03/08 20:21:03;;;;;;;;;;;7.00;71.90;;;;;;6209728;23;19916;-87
2021/03/08 20:23:33;;;;;;;;;;;7.00;71.80;;;;;;6185448;23;19907;-86
2021/03/08 20:26:02;;;;;;;;;;;6.90;71.80;;;;;;6184907;23;19904;-87
2021/03/08 20:28:33;;;;;;;;;;;6.90;71.80;;;;;;6214097;23;19904;-86
2021/03/08 20:31:35;;;;;;;;;;;;;;;;;;;;;
2021/03/08 20:34:03;;;;;;;;;;;6.90;71.70;;;;;;6211052;23;20022;-87
2021/03/08 20:42:13;;;;;;;;;;;6.80;71.60;;;;;;6215093;23;19904;-85
2021/03/08 20:45:07;;;;;;;;;;;;;;;;;;;;;
2021/03/08 20:47:43;;;;;;;;;;;6.80;71.90;;;;;;6187038;23;19978;-86
2021/03/08 20:50:44;;;;;;;;;;;6.80;72.00;;;;;;6185336;23;19926;-88
2021/03/08 20:53:19;;;;;;;;;;;6.80;72.00;;;;;;6209842;23;19910;-85
2021/03/08 20:56:21;;;;;;;;;;;6.80;72.00;;;;;;6184799;23;19904;-86
2021/03/08 20:59:12;;;;;;;;;;;6.80;72.00;;;;;;6168444;23;19907;-88
2021/03/08 21:01:53;;;;;;;;;;;6.70;71.90;;;;;;6189853;23;19903;-86
2021/03/08 21:04:42;;;;;;;;;;;6.70;72.00;;;;;;6163504;23;19927;-86
2021/03/08 21:07:35;;;;;;;;;;;6.70;71.90;;;;;;6190716;23;19919;-85
2021/03/08 21:10:37;;;;;;;;;;;;;;;;;;;;;
2021/03/08 21:13:03;;;;;;;;;;;6.70;72.10;;;;;;6212641;23;19991;-84
2021/03/08 21:15:29;;;;;;;;;;;6.60;72.10;;;;;;6214212;23;19931;-84
2021/03/08 21:17:55;;;;;;;;;;;6.70;72.20;;;;;;6187533;23;19950;-86
2021/03/08 21:20:23;;;;;;;;;;;6.60;72.20;;;;;;6223319;23;19915;-85
2021/03/08 21:22:52;;;;;;;;;;;6.60;72.10;;;;;;6242598;23;19903;-85
2021/03/08 21:25:18;;;;;;;;;;;6.60;72.10;;;;;;6241428;23;19926;-86
2021/03/08 21:27:48;;;;;;;;;;;6.60;71.80;;;;;;6242969;23;19953;-85
2021/03/08 21:30:20;;;;;;;;;;;6.60;71.80;;;;;;6244685;23;20221;-85
2021/03/08 21:32:45;;;;;;;;;;;6.60;71.80;;;;;;6218539;23;19927;-86
2021/03/08 21:35:11;;;;;;;;;;;6.50;71.80;;;;;;6244106;23;19911;-85
2021/03/08 21:37:39;;;;;;;;;;;6.50;71.90;;;;;;6220288;23;19904;-85
2021/03/08 21:43:04;;;;;;;;;;;6.50;72.00;;;;;;6233216;23;20321;-86
2021/03/08 21:45:39;;;;;;;;;;;6.50;72.20;;;;;;6247727;23;19910;-85
2021/03/08 21:48:13;;;;;;;;;;;6.40;72.20;;;;;;6254768;23;19947;-86
2021/03/08 21:50:39;;;;;;;;;;;6.40;72.40;;;;;;6233897;23;19914;-84
2021/03/08 21:53:05;;;;;;;;;;;6.40;72.50;;;;;;6263490;23;19979;-85
2021/03/08 21:55:33;;;;;;;;;;;6.40;72.50;;;;;;6236664;23;19900;-86
2021/03/08 21:58:04;;;;;;;;;;;6.40;72.60;;;;;;6258168;23;19906;-86
2021/03/08 22:00:32;;;;;;;;;;;6.40;72.70;;;;;;6245545;23;20284;-85
2021/03/08 22:03:00;;;;;;;;;;;6.40;72.90;;;;;;6245308;23;20371;-86
2021/03/08 22:05:31;;;;;;;;;;;6.30;72.90;;;;;;6246877;23;19910;-87
2021/03/08 22:07:56;;;;;;;;;;;6.30;73.10;;;;;;6220389;23;19987;-86
2021/03/08 22:10:22;;;;;;;;;;;6.30;73.30;;;;;;6244161;23;19931;-85
2021/03/08 22:12:50;;;;;;;;;;;6.30;73.40;;;;;;6243678;23;19907;-85
2021/03/08 22:15:36;;;;;;;;;;;;;;;;;;;;;
2021/03/08 22:18:10;;;;;;;;;;;6.30;73.80;;;;;;6243755;23;19974;-85
2021/03/08 22:20:36;;;;;;;;;;;6.30;74.30;;;;;;6217345;22;19949;-85
2021/03/08 22:23:02;;;;;;;;;;;6.30;74.70;;;;;;6201407;23;19904;-85
2021/03/08 22:25:32;;;;;;;;;;;6.20;74.90;;;;;;6235970;23;20419;-86
2021/03/08 22:28:00;;;;;;;;;;;6.20;75.30;;;;;;6217696;23;19912;-86
2021/03/08 22:30:26;;;;;;;;;;;6.20;75.50;;;;;;6243408;23;19899;-85
2021/03/08 22:32:54;;;;;;;;;;;6.20;75.80;;;;;;6242143;23;19906;-86
2021/03/08 22:35:23;;;;;;;;;;;6.20;76.00;;;;;;6217426;23;19907;-85
2021/03/08 22:37:48;;;;;;;;;;;6.10;76.20;;;;;;6243573;23;19907;-86
2021/03/08 22:40:19;;;;;;;;;;;6.10;76.30;;;;;;6244165;23;19903;-84
2021/03/08 22:42:47;;;;;;;;;;;6.20;76.50;;;;;;6244334;23;20217;-86
2021/03/08 22:45:21;;;;;;;;;;;6.10;76.70;;;;;;6244775;23;20237;-87
2021/03/08 22:47:49;;;;;;;;;;;6.10;76.80;;;;;;6215502;23;19954;-85
2021/03/08 22:50:20;;;;;;;;;;;6.10;77.10;;;;;;6241992;23;19903;-86
2021/03/08 22:52:56;;;;;;;;;;;6.10;77.50;;;;;;6217589;23;19904;-86
2021/03/08 22:55:26;;;;;;;;;;;6.00;77.50;;;;;;6219946;23;19903;-85
2021/03/08 22:57:54;;;;;;;;;;;6.00;77.70;;;;;;6245147;23;19899;-86